sensor_id;sensor_type;location;lat;lon;timestamp;pressure;altitude;pressure_sealevel;temperature;humidity
12360;BME280;6244;51.460;7.090;2023-03-08T00:00:22;99148.97;;;0.26;91.55
12360;BME280;6244;51.460;7.090;2023-03-08T00:05:19;99151.16;;;0.37;90.94
12360;BME280;6244;51.460;7.090;2023-03-08T00:10:16;99152.81;;;0.40;90.46
12360;BME280;6244;51.460;7.090;2023-03-08T00:15:13;99151.69;;;0.47;90.57
12360;BME280;6244;51.460;7.090;2023-03-08T00:20:12;99165.84;;;0.35;90.69
12360;BME280;6244;51.460;7.090;2023-03-08T00:25:10;99153.75;;;0.37;90.97
12360;BME280;6244;51.460;7.090;2023-03-08T00:30:11;99149.13;;;0.47;90.89
12360;BME280;6244;51.460;7.090;2023-03-08T00:35:08;99138.66;;;0.51;90.56
12360;BME280;6244;51.460;7.090;2023-03-08T00:40:06;99147.00;;;0.33;90.53
12360;BME280;6244;51.460;7.090;2023-03-08T00:45:06;99146.28;;;0.29;90.54
12360;BME280;6244;51.460;7.090;2023-03-08T00:50:04;99143.50;;;0.09;90.70
12360;BME280;6244;51.460;7.090;2023-03-08T00:55:00;99145.50;;;0.01;91.22
12360;BME280;6244;51.460;7.090;2023-03-08T00:59:57;99141.09;;;0.05;91.21
12360;BME280;6244;51.460;7.090;2023-03-08T01:04:55;99140.97;;;0.08;91.39
12360;BME280;6244;51.460;7.090;2023-03-08T01:09:53;99134.91;;;0.09;91.34
12360;BME280;6244;51.460;7.090;2023-03-08T01:14:50;99136.47;;;0.14;91.73
12360;BME280;6244;51.460;7.090;2023-03-08T01:19:46;99121.69;;;0.44;91.24
12360;BME280;6244;51.460;7.090;2023-03-08T01:24:44;99120.88;;;0.17;90.97
12360;BME280;6244;51.460;7.090;2023-03-08T01:29:41;99115.56;;;0.22;91.45
12360;BME280;6244;51.460;7.090;2023-03-08T01:34:38;99106.56;;;0.34;90.96
12360;BME280;6244;51.460;7.090;2023-03-08T01:39:35;99098.72;;;0.12;91.52
12360;BME280;6244;51.460;7.090;2023-03-08T01:44:54;99096.88;;;0.15;91.83
12360;BME280;6244;51.460;7.090;2023-03-08T01:49:52;99092.94;;;0.30;91.21
12360;BME280;6244;51.460;7.090;2023-03-08T01:54:52;99087.31;;;0.19;91.34
12360;BME280;6244;51.460;7.090;2023-03-08T01:59:54;99080.72;;;0.35;91.29
12360;BME280;6244;51.460;7.090;2023-03-08T02:04:51;99063.91;;;0.23;91.19
12360;BME280;6244;51.460;7.090;2023-03-08T02:09:48;99056.16;;;0.48;91.17
12360;BME280;6244;51.460;7.090;2023-03-08T02:14:45;99053.63;;;0.47;91.67
12360;BME280;6244;51.460;7.090;2023-03-08T02:19:45;99041.44;;;0.75;90.61
12360;BME280;6244;51.460;7.090;2023-03-08T02:24:45;99031.66;;;0.60;90.77
12360;BME280;6244;51.460;7.090;2023-03-08T02:29:41;99020.16;;;0.69;90.53
12360;BME280;6244;51.460;7.090;2023-03-08T02:34:38;99027.84;;;0.70;90.78
12360;BME280;6244;51.460;7.090;2023-03-08T02:39:34;99030.53;;;0.91;90.40
12360;BME280;6244;51.460;7.090;2023-03-08T02:44:32;99030.41;;;0.94;89.79
12360;BME280;6244;51.460;7.090;2023-03-08T02:49:29;99026.09;;;0.71;89.34
12360;BME280;6244;51.460;7.090;2023-03-08T02:54:25;99031.00;;;0.78;90.20
12360;BME280;6244;51.460;7.090;2023-03-08T02:59:22;99017.28;;;1.00;89.68
12360;BME280;6244;51.460;7.090;2023-03-08T03:04:20;99016.41;;;0.99;89.66
12360;BME280;6244;51.460;7.090;2023-03-08T03:09:16;99010.41;;;0.77;89.24
12360;BME280;6244;51.460;7.090;2023-03-08T03:14:13;99004.53;;;0.72;89.59
12360;BME280;6244;51.460;7.090;2023-03-08T03:19:09;99005.81;;;0.38;89.58
12360;BME280;6244;51.460;7.090;2023-03-08T03:24:07;99012.75;;;0.36;89.68
12360;BME280;6244;51.460;7.090;2023-03-08T03:29:04;99004.00;;;0.40;89.54
12360;BME280;6244;51.460;7.090;2023-03-08T03:34:00;98991.88;;;0.42;90.03
12360;BME280;6244;51.460;7.090;2023-03-08T03:38:57;98993.78;;;0.37;90.28
12360;BME280;6244;51.460;7.090;2023-03-08T03:43:56;98990.75;;;0.49;89.86
12360;BME280;6244;51.460;7.090;2023-03-08T03:48:53;98981.38;;;0.23;90.20
12360;BME280;6244;51.460;7.090;2023-03-08T03:53:49;98975.06;;;0.32;90.44
12360;BME280;6244;51.460;7.090;2023-03-08T03:58:46;98972.00;;;0.68;90.52
12360;BME280;6244;51.460;7.090;2023-03-08T04:03:45;98964.22;;;0.69;89.69
12360;BME280;6244;51.460;7.090;2023-03-08T04:08:41;98959.44;;;1.04;89.83
12360;BME280;6244;51.460;7.090;2023-03-08T04:13:38;98945.81;;;1.42;89.14
12360;BME280;6244;51.460;7.090;2023-03-08T04:18:35;98934.00;;;1.37;88.50
12360;BME280;6244;51.460;7.090;2023-03-08T04:23:34;98935.09;;;1.09;88.15
12360;BME280;6244;51.460;7.090;2023-03-08T04:28:30;98921.81;;;1.18;88.43
12360;BME280;6244;51.460;7.090;2023-03-08T04:33:28;98919.56;;;0.89;88.74
12360;BME280;6244;51.460;7.090;2023-03-08T04:38:24;98923.13;;;1.07;88.45
12360;BME280;6244;51.460;7.090;2023-03-08T04:43:22;98909.44;;;1.27;87.87
12360;BME280;6244;51.460;7.090;2023-03-08T04:48:18;98907.88;;;1.43;87.76
12360;BME280;6244;51.460;7.090;2023-03-08T04:53:15;98902.31;;;1.32;87.25
12360;BME280;6244;51.460;7.090;2023-03-08T04:58:11;98891.25;;;1.08;87.45
12360;BME280;6244;51.460;7.090;2023-03-08T05:03:09;98883.25;;;1.34;87.44
12360;BME280;6244;51.460;7.090;2023-03-08T05:08:08;98879.56;;;1.20;87.01
12360;BME280;6244;51.460;7.090;2023-03-08T05:13:05;98869.44;;;1.15;86.92
12360;BME280;6244;51.460;7.090;2023-03-08T05:18:01;98862.19;;;1.03;86.92
12360;BME280;6244;51.460;7.090;2023-03-08T05:22:59;98862.25;;;1.01;87.05
12360;BME280;6244;51.460;7.090;2023-03-08T05:27:55;98866.13;;;1.11;86.88
12360;BME280;6244;51.460;7.090;2023-03-08T05:32:52;98854.44;;;1.03;85.90
12360;BME280;6244;51.460;7.090;2023-03-08T05:37:48;98844.94;;;1.03;86.24
12360;BME280;6244;51.460;7.090;2023-03-08T05:42:46;98839.75;;;0.83;86.39
12360;BME280;6244;51.460;7.090;2023-03-08T05:47:43;98830.53;;;0.55;86.69
12360;BME280;6244;51.460;7.090;2023-03-08T05:52:40;98810.31;;;0.45;87.79
12360;BME280;6244;51.460;7.090;2023-03-08T05:57:37;98807.75;;;0.87;86.72
12360;BME280;6244;51.460;7.090;2023-03-08T06:02:35;98797.28;;;0.70;86.17
12360;BME280;6244;51.460;7.090;2023-03-08T06:07:32;98789.97;;;0.59;86.88
12360;BME280;6244;51.460;7.090;2023-03-08T06:12:28;98780.09;;;0.69;86.37
12360;BME280;6244;51.460;7.090;2023-03-08T06:17:25;98782.38;;;0.76;86.60
12360;BME280;6244;51.460;7.090;2023-03-08T06:22:22;98776.78;;;0.01;87.76
12360;BME280;6244;51.460;7.090;2023-03-08T06:27:19;98765.91;;;-0.07;87.68
12360;BME280;6244;51.460;7.090;2023-03-08T06:32:16;98753.47;;;0.04;88.23
12360;BME280;6244;51.460;7.090;2023-03-08T06:37:13;98745.59;;;0.07;88.78
12360;BME280;6244;51.460;7.090;2023-03-08T06:42:12;98737.34;;;0.63;88.47
12360;BME280;6244;51.460;7.090;2023-03-08T06:47:08;98733.97;;;0.81;87.03
12360;BME280;6244;51.460;7.090;2023-03-08T06:52:05;98723.25;;;0.50;87.27
12360;BME280;6244;51.460;7.090;2023-03-08T06:57:01;98724.84;;;0.73;87.15
12360;BME280;6244;51.460;7.090;2023-03-08T07:01:59;98712.34;;;0.84;86.70
12360;BME280;6244;51.460;7.090;2023-03-08T07:06:56;98714.84;;;0.85;86.44
12360;BME280;6244;51.460;7.090;2023-03-08T07:11:53;98715.69;;;0.86;85.99
12360;BME280;6244;51.460;7.090;2023-03-08T07:16:49;98708.91;;;0.83;86.30
12360;BME280;6244;51.460;7.090;2023-03-08T07:21:47;98694.34;;;0.82;86.32
12360;BME280;6244;51.460;7.090;2023-03-08T07:26:44;98694.66;;;0.95;85.59
12360;BME280;6244;51.460;7.090;2023-03-08T07:31:40;98692.22;;;0.92;85.45
12360;BME280;6244;51.460;7.090;2023-03-08T07:36:37;98683.56;;;0.93;85.73
12360;BME280;6244;51.460;7.090;2023-03-08T07:41:36;98689.69;;;0.91;85.73
12360;BME280;6244;51.460;7.090;2023-03-08T07:46:32;98693.34;;;0.85;86.01
12360;BME280;6244;51.460;7.090;2023-03-08T07:51:29;98685.91;;;0.98;85.25
12360;BME280;6244;51.460;7.090;2023-03-08T07:56:25;98688.84;;;0.90;85.45
12360;BME280;6244;51.460;7.090;2023-03-08T08:01:23;98681.03;;;0.92;85.79
12360;BME280;6244;51.460;7.090;2023-03-08T08:06:20;98663.47;;;1.00;85.17
12360;BME280;6244;51.460;7.090;2023-03-08T08:11:17;98664.78;;;0.90;85.26
12360;BME280;6244;51.460;7.090;2023-03-08T08:16:15;98650.53;;;0.81;85.39
12360;BME280;6244;51.460;7.090;2023-03-08T08:21:14;98637.63;;;0.81;85.32
12360;BME280;6244;51.460;7.090;2023-03-08T08:26:13;98637.38;;;0.67;86.21
12360;BME280;6244;51.460;7.090;2023-03-08T08:31:12;98625.44;;;0.44;86.67
12360;BME280;6244;51.460;7.090;2023-03-08T08:36:13;98616.97;;;0.61;86.78
12360;BME280;6244;51.460;7.090;2023-03-08T08:41:11;98605.50;;;0.68;86.63
12360;BME280;6244;51.460;7.090;2023-03-08T08:46:09;98588.34;;;0.67;86.67
12360;BME280;6244;51.460;7.090;2023-03-08T08:51:07;98582.63;;;0.79;86.29
12360;BME280;6244;51.460;7.090;2023-03-08T08:56:13;98575.22;;;0.71;86.89
12360;BME280;6244;51.460;7.090;2023-03-08T09:01:14;98567.28;;;0.76;86.60
12360;BME280;6244;51.460;7.090;2023-03-08T09:06:11;98563.94;;;0.93;86.67
12360;BME280;6244;51.460;7.090;2023-03-08T09:11:09;98561.84;;;0.82;86.48
12360;BME280;6244;51.460;7.090;2023-03-08T09:16:16;98552.91;;;0.70;86.81
12360;BME280;6244;51.460;7.090;2023-03-08T09:21:13;98537.47;;;0.69;86.96
12360;BME280;6244;51.460;7.090;2023-03-08T09:26:10;98535.59;;;0.72;87.01
12360;BME280;6244;51.460;7.090;2023-03-08T09:31:10;98526.09;;;0.73;87.28
12360;BME280;6244;51.460;7.090;2023-03-08T09:36:09;98526.81;;;0.95;87.18
12360;BME280;6244;51.460;7.090;2023-03-08T09:41:16;98529.81;;;1.05;86.96
12360;BME280;6244;51.460;7.090;2023-03-08T09:46:22;98528.75;;;1.09;86.88
12360;BME280;6244;51.460;7.090;2023-03-08T09:51:22;98514.53;;;1.00;87.35
12360;BME280;6244;51.460;7.090;2023-03-08T09:56:31;98503.94;;;1.24;86.87
12360;BME280;6244;51.460;7.090;2023-03-08T10:01:35;98501.88;;;1.13;86.39
12360;BME280;6244;51.460;7.090;2023-03-08T10:06:37;98510.56;;;1.29;86.02
12360;BME280;6244;51.460;7.090;2023-03-08T10:11:39;98508.16;;;1.26;85.79
12360;BME280;6244;51.460;7.090;2023-03-08T10:16:43;98503.25;;;1.20;86.07
12360;BME280;6244;51.460;7.090;2023-03-08T10:21:42;98504.16;;;1.19;86.03
12360;BME280;6244;51.460;7.090;2023-03-08T10:26:40;98489.97;;;1.28;85.77
12360;BME280;6244;51.460;7.090;2023-03-08T10:31:37;98481.00;;;1.35;86.04
12360;BME280;6244;51.460;7.090;2023-03-08T10:36:46;98462.25;;;1.48;86.19
12360;BME280;6244;51.460;7.090;2023-03-08T10:41:45;98451.91;;;1.48;85.76
12360;BME280;6244;51.460;7.090;2023-03-08T10:46:48;98426.06;;;1.66;85.28
12360;BME280;6244;51.460;7.090;2023-03-08T10:51:54;98431.91;;;1.87;85.45
12360;BME280;6244;51.460;7.090;2023-03-08T10:56:54;98430.81;;;1.91;84.23
12360;BME280;6244;51.460;7.090;2023-03-08T11:01:53;98440.22;;;1.76;84.46
12360;BME280;6244;51.460;7.090;2023-03-08T11:06:50;98436.25;;;1.69;84.56
12360;BME280;6244;51.460;7.090;2023-03-08T11:11:47;98441.72;;;1.80;84.78
12360;BME280;6244;51.460;7.090;2023-03-08T11:16:52;98443.00;;;1.71;85.20
12360;BME280;6244;51.460;7.090;2023-03-08T11:21:57;98439.06;;;1.82;84.41
12360;BME280;6244;51.460;7.090;2023-03-08T11:27:07;98437.09;;;1.69;85.39
12360;BME280;6244;51.460;7.090;2023-03-08T11:32:17;98420.28;;;1.78;85.50
12360;BME280;6244;51.460;7.090;2023-03-08T11:37:21;98424.94;;;1.54;85.22
12360;BME280;6244;51.460;7.090;2023-03-08T11:42:28;98422.13;;;1.59;86.15
12360;BME280;6244;51.460;7.090;2023-03-08T11:47:56;98420.06;;;1.65;85.48
12360;BME280;6244;51.460;7.090;2023-03-08T11:53:05;98431.00;;;1.88;85.21
12360;BME280;6244;51.460;7.090;2023-03-08T11:58:11;98413.94;;;1.84;85.84
12360;BME280;6244;51.460;7.090;2023-03-08T12:03:13;98406.28;;;1.82;85.09
12360;BME280;6244;51.460;7.090;2023-03-08T12:08:14;98413.28;;;1.80;85.09
12360;BME280;6244;51.460;7.090;2023-03-08T12:13:17;98410.94;;;1.75;85.13
12360;BME280;6244;51.460;7.090;2023-03-08T12:18:20;98405.72;;;1.93;84.90
12360;BME280;6244;51.460;7.090;2023-03-08T12:23:24;98414.06;;;1.98;85.22
12360;BME280;6244;51.460;7.090;2023-03-08T12:28:28;98418.84;;;2.05;84.93
12360;BME280;6244;51.460;7.090;2023-03-08T12:33:26;98393.34;;;2.15;84.50
12360;BME280;6244;51.460;7.090;2023-03-08T12:38:33;98374.78;;;2.07;85.18
12360;BME280;6244;51.460;7.090;2023-03-08T12:43:33;98369.53;;;2.09;85.21
12360;BME280;6244;51.460;7.090;2023-03-08T12:48:31;98364.72;;;1.85;85.48
12360;BME280;6244;51.460;7.090;2023-03-08T12:53:34;98364.81;;;1.84;85.78
12360;BME280;6244;51.460;7.090;2023-03-08T12:58:35;98372.88;;;2.11;85.09
12360;BME280;6244;51.460;7.090;2023-03-08T13:03:38;98342.66;;;1.95;85.74
12360;BME280;6244;51.460;7.090;2023-03-08T13:08:40;98355.69;;;2.10;84.97
12360;BME280;6244;51.460;7.090;2023-03-08T13:13:45;98356.00;;;1.88;85.16
12360;BME280;6244;51.460;7.090;2023-03-08T13:18:46;98354.09;;;2.07;86.04
12360;BME280;6244;51.460;7.090;2023-03-08T13:23:47;98364.53;;;2.05;85.15
12360;BME280;6244;51.460;7.090;2023-03-08T13:28:46;98352.06;;;1.81;85.89
12360;BME280;6244;51.460;7.090;2023-03-08T13:33:46;98336.03;;;1.74;86.08
12360;BME280;6244;51.460;7.090;2023-03-08T13:38:52;98347.28;;;1.73;85.95
12360;BME280;6244;51.460;7.090;2023-03-08T13:43:59;98350.13;;;1.84;85.82
12360;BME280;6244;51.460;7.090;2023-03-08T13:48:55;98344.13;;;1.84;86.20
12360;BME280;6244;51.460;7.090;2023-03-08T13:53:53;98335.50;;;2.00;86.13
12360;BME280;6244;51.460;7.090;2023-03-08T13:58:52;98322.03;;;1.94;86.18
12360;BME280;6244;51.460;7.090;2023-03-08T14:03:51;98327.13;;;1.95;86.20
12360;BME280;6244;51.460;7.090;2023-03-08T14:08:49;98324.97;;;2.03;85.98
12360;BME280;6244;51.460;7.090;2023-03-08T14:13:50;98318.19;;;1.85;86.00
12360;BME280;6244;51.460;7.090;2023-03-08T14:18:48;98308.50;;;1.73;86.21
12360;BME280;6244;51.460;7.090;2023-03-08T14:23:47;98305.22;;;1.87;86.66
12360;BME280;6244;51.460;7.090;2023-03-08T14:28:44;98292.50;;;1.98;85.96
12360;BME280;6244;51.460;7.090;2023-03-08T14:33:41;98302.78;;;1.99;85.90
12360;BME280;6244;51.460;7.090;2023-03-08T14:38:40;98305.38;;;1.99;85.90
12360;BME280;6244;51.460;7.090;2023-03-08T14:43:36;98303.94;;;1.94;85.95
12360;BME280;6244;51.460;7.090;2023-03-08T14:48:34;98284.91;;;1.79;86.08
12360;BME280;6244;51.460;7.090;2023-03-08T14:53:33;98283.56;;;1.72;86.14
12360;BME280;6244;51.460;7.090;2023-03-08T14:58:32;98279.81;;;1.62;86.11
12360;BME280;6244;51.460;7.090;2023-03-08T15:03:29;98279.47;;;1.52;86.68
12360;BME280;6244;51.460;7.090;2023-03-08T15:08:28;98278.38;;;1.56;86.84
12360;BME280;6244;51.460;7.090;2023-03-08T15:13:24;98280.47;;;1.65;86.42
12360;BME280;6244;51.460;7.090;2023-03-08T15:18:22;98294.50;;;1.77;86.42
12360;BME280;6244;51.460;7.090;2023-03-08T15:23:21;98294.50;;;1.77;86.86
12360;BME280;6244;51.460;7.090;2023-03-08T15:28:20;98297.75;;;1.81;86.44
12360;BME280;6244;51.460;7.090;2023-03-08T15:33:17;98289.91;;;1.66;86.85
12360;BME280;6244;51.460;7.090;2023-03-08T15:38:16;98281.22;;;1.52;87.36
12360;BME280;6244;51.460;7.090;2023-03-08T15:43:13;98278.28;;;1.58;87.54
12360;BME280;6244;51.460;7.090;2023-03-08T15:48:12;98288.22;;;1.50;87.39
12360;BME280;6244;51.460;7.090;2023-03-08T15:53:10;98294.16;;;1.67;87.09
12360;BME280;6244;51.460;7.090;2023-03-08T15:58:08;98295.53;;;1.57;87.51
12360;BME280;6244;51.460;7.090;2023-03-08T16:03:04;98289.53;;;1.57;87.38
12360;BME280;6244;51.460;7.090;2023-03-08T16:08:02;98289.09;;;1.48;87.60
12360;BME280;6244;51.460;7.090;2023-03-08T16:12:58;98292.47;;;1.51;87.70
12360;BME280;6244;51.460;7.090;2023-03-08T16:17:56;98294.78;;;1.55;87.25
12360;BME280;6244;51.460;7.090;2023-03-08T16:22:52;98286.88;;;1.58;87.42
12360;BME280;6244;51.460;7.090;2023-03-08T16:27:49;98286.69;;;1.45;87.65
12360;BME280;6244;51.460;7.090;2023-03-08T16:32:47;98278.19;;;1.43;87.55
12360;BME280;6244;51.460;7.090;2023-03-08T16:37:45;98274.13;;;1.22;88.25
12360;BME280;6244;51.460;7.090;2023-03-08T16:42:41;98284.09;;;1.12;88.26
12360;BME280;6244;51.460;7.090;2023-03-08T16:47:38;98282.09;;;1.17;88.57
12360;BME280;6244;51.460;7.090;2023-03-08T16:52:34;98285.69;;;1.15;88.76
12360;BME280;6244;51.460;7.090;2023-03-08T16:57:32;98290.03;;;1.14;88.34
12360;BME280;6244;51.460;7.090;2023-03-08T17:02:28;98287.09;;;1.21;88.67
12360;BME280;6244;51.460;7.090;2023-03-08T17:07:25;98280.72;;;1.28;88.54
12360;BME280;6244;51.460;7.090;2023-03-08T17:12:21;98277.41;;;1.26;88.56
12360;BME280;6244;51.460;7.090;2023-03-08T17:17:19;98270.41;;;1.28;88.52
12360;BME280;6244;51.460;7.090;2023-03-08T17:22:16;98262.97;;;1.04;88.88
12360;BME280;6244;51.460;7.090;2023-03-08T17:27:13;98265.19;;;1.12;88.92
12360;BME280;6244;51.460;7.090;2023-03-08T17:32:10;98274.28;;;1.19;88.73
12360;BME280;6244;51.460;7.090;2023-03-08T17:37:07;98276.56;;;1.25;88.68
12360;BME280;6244;51.460;7.090;2023-03-08T17:42:06;98284.56;;;1.36;88.59
12360;BME280;6244;51.460;7.090;2023-03-08T17:47:04;98293.03;;;1.40;88.39
12360;BME280;6244;51.460;7.090;2023-03-08T17:52:00;98291.66;;;1.33;88.34
12360;BME280;6244;51.460;7.090;2023-03-08T17:56:58;98286.94;;;1.24;88.28
12360;BME280;6244;51.460;7.090;2023-03-08T18:01:55;98290.53;;;1.21;88.49
12360;BME280;6244;51.460;7.090;2023-03-08T18:06:51;98275.19;;;1.18;88.54
12360;BME280;6244;51.460;7.090;2023-03-08T18:11:48;98277.78;;;1.18;88.57
12360;BME280;6244;51.460;7.090;2023-03-08T18:16:46;98277.19;;;1.13;88.68
12360;BME280;6244;51.460;7.090;2023-03-08T18:21:42;98275.53;;;1.12;88.65
12360;BME280;6244;51.460;7.090;2023-03-08T18:26:40;98273.53;;;1.17;88.83
12360;BME280;6244;51.460;7.090;2023-03-08T18:31:37;98272.31;;;1.07;88.91
12360;BME280;6244;51.460;7.090;2023-03-08T18:36:36;98266.28;;;1.24;88.83
12360;BME280;6244;51.460;7.090;2023-03-08T18:41:33;98268.78;;;1.58;88.55
12360;BME280;6244;51.460;7.090;2023-03-08T18:46:31;98269.06;;;1.69;88.31
12360;BME280;6244;51.460;7.090;2023-03-08T18:51:28;98265.16;;;1.94;87.66
12360;BME280;6244;51.460;7.090;2023-03-08T18:56:27;98248.63;;;1.81;88.01
12360;BME280;6244;51.460;7.090;2023-03-08T19:01:24;98253.81;;;1.96;87.79
12360;BME280;6244;51.460;7.090;2023-03-08T19:06:20;98248.97;;;2.06;87.55
12360;BME280;6244;51.460;7.090;2023-03-08T19:11:19;98242.09;;;2.21;86.75
12360;BME280;6244;51.460;7.090;2023-03-08T19:16:18;98245.88;;;2.15;87.01
12360;BME280;6244;51.460;7.090;2023-03-08T19:21:16;98239.97;;;2.13;86.52
12360;BME280;6244;51.460;7.090;2023-03-08T19:26:16;98246.13;;;2.26;86.66
12360;BME280;6244;51.460;7.090;2023-03-08T19:31:32;98227.91;;;2.28;86.12
12360;BME280;6244;51.460;7.090;2023-03-08T19:36:31;98230.69;;;2.25;86.07
12360;BME280;6244;51.460;7.090;2023-03-08T19:41:27;98220.16;;;2.28;85.78
12360;BME280;6244;51.460;7.090;2023-03-08T19:46:24;98235.72;;;2.12;85.88
12360;BME280;6244;51.460;7.090;2023-03-08T19:51:21;98242.47;;;2.15;86.11
12360;BME280;6244;51.460;7.090;2023-03-08T19:56:19;98222.50;;;2.17;85.25
12360;BME280;6244;51.460;7.090;2023-03-08T20:01:17;98218.06;;;2.19;85.32
12360;BME280;6244;51.460;7.090;2023-03-08T20:06:22;98213.25;;;1.97;85.82
12360;BME280;6244;51.460;7.090;2023-03-08T20:11:19;98226.53;;;2.06;85.39
12360;BME280;6244;51.460;7.090;2023-03-08T20:16:17;98224.84;;;2.05;85.33
12360;BME280;6244;51.460;7.090;2023-03-08T20:21:14;98219.91;;;2.17;85.01
12360;BME280;6244;51.460;7.090;2023-03-08T20:26:12;98216.19;;;2.06;84.93
12360;BME280;6244;51.460;7.090;2023-03-08T20:31:09;98215.84;;;1.97;85.08
12360;BME280;6244;51.460;7.090;2023-03-08T20:36:06;98229.19;;;2.05;84.56
12360;BME280;6244;51.460;7.090;2023-03-08T20:41:05;98220.59;;;2.04;84.24
12360;BME280;6244;51.460;7.090;2023-03-08T20:46:05;98218.19;;;2.01;84.12
12360;BME280;6244;51.460;7.090;2023-03-08T20:51:04;98209.94;;;1.95;83.74
12360;BME280;6244;51.460;7.090;2023-03-08T20:56:03;98194.06;;;1.85;84.18
12360;BME280;6244;51.460;7.090;2023-03-08T21:01:00;98204.84;;;1.93;83.71
12360;BME280;6244;51.460;7.090;2023-03-08T21:06:10;98199.25;;;1.85;83.85
12360;BME280;6244;51.460;7.090;2023-03-08T21:11:07;98193.50;;;1.96;83.65
12360;BME280;6244;51.460;7.090;2023-03-08T21:16:06;98191.34;;;1.88;83.59
12360;BME280;6244;51.460;7.090;2023-03-08T21:21:04;98189.00;;;1.99;83.28
12360;BME280;6244;51.460;7.090;2023-03-08T21:26:02;98198.25;;;2.03;83.07
12360;BME280;6244;51.460;7.090;2023-03-08T21:30:59;98192.41;;;2.00;83.03
12360;BME280;6244;51.460;7.090;2023-03-08T21:35:56;98178.38;;;2.04;82.66
12360;BME280;6244;51.460;7.090;2023-03-08T21:40:52;98169.47;;;1.94;82.48
12360;BME280;6244;51.460;7.090;2023-03-08T21:45:50;98175.81;;;2.04;82.63
12360;BME280;6244;51.460;7.090;2023-03-08T21:50:47;98167.47;;;1.99;82.45
12360;BME280;6244;51.460;7.090;2023-03-08T21:55:43;98173.53;;;1.98;82.54
12360;BME280;6244;51.460;7.090;2023-03-08T22:00:40;98165.78;;;1.98;82.52
12360;BME280;6244;51.460;7.090;2023-03-08T22:05:38;98143.84;;;2.05;82.34
12360;BME280;6244;51.460;7.090;2023-03-08T22:10:34;98144.03;;;2.02;82.29
12360;BME280;6244;51.460;7.090;2023-03-08T22:15:31;98138.09;;;2.00;82.29
12360;BME280;6244;51.460;7.090;2023-03-08T22:20:27;98130.59;;;1.95;82.83
12360;BME280;6244;51.460;7.090;2023-03-08T22:25:25;98115.06;;;1.95;82.60
12360;BME280;6244;51.460;7.090;2023-03-08T22:30:22;98114.59;;;1.89;82.75
12360;BME280;6244;51.460;7.090;2023-03-08T22:35:20;98107.91;;;1.85;82.97
12360;BME280;6244;51.460;7.090;2023-03-08T22:40:17;98092.06;;;1.91;83.29
12360;BME280;6244;51.460;7.090;2023-03-08T22:45:15;98082.34;;;1.80;83.49
12360;BME280;6244;51.460;7.090;2023-03-08T22:50:11;98078.00;;;1.81;83.80
12360;BME280;6244;51.460;7.090;2023-03-08T22:55:09;98074.16;;;1.72;84.28
12360;BME280;6244;51.460;7.090;2023-03-08T23:00:07;98063.44;;;1.64;84.05
12360;BME280;6244;51.460;7.090;2023-03-08T23:05:11;98067.44;;;1.69;84.33
12360;BME280;6244;51.460;7.090;2023-03-08T23:10:10;98075.69;;;1.60;84.78
12360;BME280;6244;51.460;7.090;2023-03-08T23:15:08;98068.72;;;1.62;84.57
12360;BME280;6244;51.460;7.090;2023-03-08T23:20:05;98079.34;;;1.72;84.76
12360;BME280;6244;51.460;7.090;2023-03-08T23:25:05;98079.94;;;1.77;84.56
12360;BME280;6244;51.460;7.090;2023-03-08T23:30:02;98074.94;;;1.74;84.57
12360;BME280;6244;51.460;7.090;2023-03-08T23:34:59;98079.25;;;1.73;84.67
12360;BME280;6244;51.460;7.090;2023-03-08T23:39:55;98066.41;;;1.72;84.52
12360;BME280;6244;51.460;7.090;2023-03-08T23:44:53;98059.84;;;1.66;84.84
12360;BME280;6244;51.460;7.090;2023-03-08T23:49:50;98060.03;;;1.63;84.87
12360;BME280;6244;51.460;7.090;2023-03-08T23:54:46;98062.03;;;1.58;85.37
12360;BME280;6244;51.460;7.090;2023-03-08T23:59:43;98048.88;;;1.63;85.34
